createdAt,value
2023-05-17T00:00:50.201Z,26.91
2023-05-17T00:01:50.212Z,26.89
2023-05-17T00:02:50.227Z,26.94
2023-05-17T00:03:50.196Z,26.95
2023-05-17T00:04:50.238Z,26.91
2023-05-17T00:05:50.207Z,26.97
2023-05-17T00:06:50.205Z,26.89
2023-05-17T00:07:50.412Z,26.94
2023-05-17T00:08:50.200Z,26.91
2023-05-17T00:09:50.194Z,26.99
2023-05-17T00:10:50.212Z,26.94
2023-05-17T00:11:50.194Z,26.94
2023-05-17T00:12:50.198Z,26.97
2023-05-17T00:13:50.195Z,26.92
2023-05-17T00:14:50.201Z,26.94
2023-05-17T00:15:50.194Z,26.92
2023-05-17T00:16:50.202Z,26.94
2023-05-17T00:17:50.264Z,26.92
2023-05-17T00:18:50.332Z,26.95
2023-05-17T00:19:50.300Z,26.89
2023-05-17T00:20:50.200Z,26.94
2023-05-17T00:21:50.201Z,26.92
2023-05-17T00:22:50.199Z,26.97
2023-05-17T00:23:50.353Z,26.95
2023-05-17T00:24:50.200Z,26.89
2023-05-17T00:25:50.191Z,26.94
2023-05-17T00:26:50.197Z,26.92
2023-05-17T00:27:50.191Z,26.95
2023-05-17T00:28:50.199Z,26.89
2023-05-17T00:29:50.195Z,26.91
2023-05-17T00:30:50.196Z,26.88
2023-05-17T00:31:50.201Z,26.94
2023-05-17T00:32:50.219Z,26.95
2023-05-17T00:33:50.190Z,26.95
2023-05-17T00:34:50.221Z,26.89
2023-05-17T00:35:50.198Z,26.91
2023-05-17T00:36:50.194Z,26.88
2023-05-17T00:37:50.200Z,26.89
2023-05-17T00:38:50.198Z,26.88
2023-05-17T00:39:50.238Z,26.89
2023-05-17T00:40:50.207Z,26.91
2023-05-17T00:41:50.195Z,26.92
2023-05-17T00:42:50.196Z,26.89
2023-05-17T00:43:50.192Z,26.82
2023-05-17T00:44:50.195Z,26.92
2023-05-17T00:45:50.202Z,26.89
2023-05-17T00:46:50.194Z,26.92
2023-05-17T00:47:50.215Z,26.91
2023-05-17T00:48:50.229Z,26.91
2023-05-17T00:49:50.185Z,26.88
2023-05-17T00:50:50.201Z,26.94
2023-05-17T00:51:50.189Z,26.91
2023-05-17T00:52:50.196Z,26.92
2023-05-17T00:53:50.209Z,26.81
2023-05-17T00:54:50.195Z,26.91
2023-05-17T00:55:50.361Z,26.97
2023-05-17T00:56:50.195Z,26.94
2023-05-17T00:57:50.198Z,26.92
2023-05-17T00:58:50.193Z,26.91
2023-05-17T00:59:50.186Z,26.94
2023-05-17T01:00:50.201Z,26.94
2023-05-17T01:01:50.184Z,26.91
2023-05-17T01:02:50.262Z,26.92
2023-05-17T01:03:50.331Z,26.94
2023-05-17T01:04:50.210Z,26.91
2023-05-17T01:05:50.185Z,26.89
2023-05-17T01:06:50.205Z,26.92
2023-05-17T01:07:50.181Z,26.92
2023-05-17T01:08:50.193Z,26.89
2023-05-17T01:09:50.190Z,26.88
2023-05-17T01:10:50.193Z,26.88
2023-05-17T01:11:50.280Z,26.81
2023-05-17T01:12:50.193Z,26.88
2023-05-17T01:13:50.187Z,26.88
2023-05-17T01:14:50.202Z,26.87
2023-05-17T01:15:50.187Z,26.89
2023-05-17T01:16:50.188Z,26.88
2023-05-17T01:17:50.235Z,26.92
2023-05-17T01:18:50.447Z,26.88
2023-05-17T01:19:50.304Z,26.94
2023-05-17T01:20:50.187Z,26.91
2023-05-17T01:21:50.180Z,26.91
2023-05-17T01:22:50.197Z,26.89
2023-05-17T01:23:50.180Z,26.84
2023-05-17T01:24:50.189Z,26.89
2023-05-17T01:25:50.184Z,26.89
2023-05-17T01:26:50.190Z,26.88
2023-05-17T01:27:50.274Z,26.91
2023-05-17T01:28:50.191Z,26.91
2023-05-17T01:29:50.192Z,26.89
2023-05-17T01:30:50.194Z,26.88
2023-05-17T01:31:50.179Z,26.88
2023-05-17T01:32:50.291Z,26.89
2023-05-17T01:33:50.278Z,26.82
2023-05-17T01:34:50.202Z,26.91
2023-05-17T01:35:50.180Z,26.88
2023-05-17T01:36:50.188Z,26.88
2023-05-17T01:37:50.177Z,26.91
2023-05-17T01:38:50.184Z,26.89
2023-05-17T01:39:50.177Z,26.89
2023-05-17T01:40:50.184Z,26.88
2023-05-17T01:41:50.177Z,26.92
2023-05-17T01:42:50.193Z,26.91
2023-05-17T01:43:50.205Z,26.88
2023-05-17T01:44:50.187Z,26.94
2023-05-17T01:45:50.188Z,26.91
2023-05-17T01:46:50.180Z,26.88
2023-05-17T01:47:50.220Z,26.91
2023-05-17T01:48:50.250Z,26.89
2023-05-17T01:49:50.190Z,26.92
2023-05-17T01:50:50.183Z,26.82
2023-05-17T01:51:50.184Z,26.94
2023-05-17T01:52:50.188Z,26.92
2023-05-17T01:53:50.174Z,26.89
2023-05-17T01:54:50.188Z,26.89
2023-05-17T01:55:50.175Z,26.91
2023-05-17T01:56:50.212Z,26.89
2023-05-17T01:57:50.193Z,26.91
2023-05-17T01:58:50.181Z,26.89
2023-05-17T01:59:50.360Z,26.94
2023-05-17T02:00:50.181Z,26.89
2023-05-17T02:01:50.174Z,26.89
2023-05-17T02:02:50.205Z,26.84
2023-05-17T02:03:50.246Z,26.89
2023-05-17T02:04:50.220Z,26.92
2023-05-17T02:05:50.180Z,26.88
2023-05-17T02:06:50.176Z,26.91
2023-05-17T02:07:50.185Z,26.89
2023-05-17T02:08:50.172Z,26.89
2023-05-17T02:09:50.188Z,26.94
2023-05-17T02:10:50.170Z,26.92
2023-05-17T02:11:50.181Z,26.81
2023-05-17T02:12:50.179Z,26.91
2023-05-17T02:13:50.180Z,26.89
2023-05-17T02:14:50.174Z,26.89
2023-05-17T02:15:50.206Z,26.92
2023-05-17T02:16:50.178Z,26.89
2023-05-17T02:17:50.281Z,26.89
2023-05-17T02:18:50.237Z,26.89
2023-05-17T02:19:50.183Z,26.91
2023-05-17T02:20:50.173Z,26.89
2023-05-17T02:21:50.180Z,26.89
2023-05-17T02:22:50.174Z,26.87
2023-05-17T02:23:50.178Z,26.89
2023-05-17T02:24:50.174Z,26.91
2023-05-17T02:25:50.184Z,26.97
2023-05-17T02:26:50.176Z,26.91
2023-05-17T02:27:50.183Z,26.88
2023-05-17T02:28:50.175Z,26.80
2023-05-17T02:29:50.183Z,26.81
2023-05-17T02:30:50.172Z,26.91
2023-05-17T02:31:50.278Z,26.95
2023-05-17T02:32:50.319Z,26.80
2023-05-17T02:33:50.210Z,26.88
2023-05-17T02:34:50.176Z,26.85
2023-05-17T02:35:50.182Z,26.77
2023-05-17T02:36:50.170Z,26.88
2023-05-17T02:37:50.182Z,26.82
2023-05-17T02:38:50.185Z,26.88
2023-05-17T02:39:50.184Z,26.89
2023-05-17T02:40:50.178Z,26.84
2023-05-17T02:41:50.178Z,26.88
2023-05-17T02:42:50.173Z,26.88
2023-05-17T02:43:50.182Z,26.82
2023-05-17T02:44:50.173Z,26.77
2023-05-17T02:45:50.179Z,26.89
2023-05-17T02:46:50.207Z,26.87
2023-05-17T02:47:50.451Z,26.76
2023-05-17T02:48:50.169Z,26.82
2023-05-17T02:49:50.175Z,26.89
2023-05-17T02:50:50.170Z,26.85
2023-05-17T02:51:50.178Z,26.88
2023-05-17T02:52:50.166Z,26.87
2023-05-17T02:53:50.182Z,26.77
2023-05-17T02:54:50.173Z,26.88
2023-05-17T02:55:50.179Z,26.95
2023-05-17T02:56:50.175Z,26.87
2023-05-17T02:57:50.172Z,26.87
2023-05-17T02:58:50.171Z,26.89
2023-05-17T02:59:50.177Z,26.89
2023-05-17T03:00:50.166Z,26.88
2023-05-17T03:01:50.172Z,26.88
2023-05-17T03:02:50.243Z,26.84
2023-05-17T03:03:50.478Z,26.82
2023-05-17T03:04:50.238Z,26.81
2023-05-17T03:05:50.176Z,26.84
2023-05-17T03:06:50.163Z,26.89
2023-05-17T03:07:50.171Z,26.92
2023-05-17T03:08:50.185Z,26.91
2023-05-17T03:09:50.173Z,26.91
2023-05-17T03:10:50.164Z,26.89
2023-05-17T03:11:50.185Z,26.89
2023-05-17T03:12:50.183Z,26.92
2023-05-17T03:13:50.171Z,26.91
2023-05-17T03:14:50.180Z,26.85
2023-05-17T03:15:50.175Z,26.88
2023-05-17T03:16:50.170Z,26.89
2023-05-17T03:17:50.259Z,26.87
2023-05-17T03:18:50.274Z,26.84
2023-05-17T03:19:50.294Z,26.81
2023-05-17T03:20:50.160Z,26.81
2023-05-17T03:21:50.170Z,26.92
2023-05-17T03:22:50.159Z,26.91
2023-05-17T03:23:50.173Z,26.89
2023-05-17T03:24:50.168Z,26.84
2023-05-17T03:25:50.174Z,26.89
2023-05-17T03:26:50.158Z,26.89
2023-05-17T03:27:50.236Z,26.94
2023-05-17T03:28:50.185Z,26.92
2023-05-17T03:29:50.170Z,26.92
2023-05-17T03:30:50.194Z,26.92
2023-05-17T03:31:50.165Z,26.88
2023-05-17T03:32:50.246Z,26.92
2023-05-17T03:33:50.232Z,26.92
2023-05-17T03:34:50.158Z,26.89
2023-05-17T03:35:50.274Z,26.91
2023-05-17T03:36:50.157Z,26.89
2023-05-17T03:37:50.165Z,26.92
2023-05-17T03:38:50.161Z,26.91
2023-05-17T03:39:50.163Z,26.94
2023-05-17T03:40:50.155Z,26.94
2023-05-17T03:41:50.168Z,26.91
2023-05-17T03:42:50.156Z,26.89
2023-05-17T03:43:50.170Z,26.91
2023-05-17T03:44:50.158Z,26.92
2023-05-17T03:45:50.165Z,26.92
2023-05-17T03:46:50.154Z,26.88
2023-05-17T03:47:50.178Z,26.91
2023-05-17T03:48:50.207Z,26.91
2023-05-17T03:49:50.167Z,26.88
2023-05-17T03:50:50.155Z,26.89
2023-05-17T03:51:50.264Z,26.84
2023-05-17T03:52:50.154Z,26.91
2023-05-17T03:53:50.167Z,26.89
2023-05-17T03:54:50.156Z,26.97
2023-05-17T03:55:50.163Z,26.89
2023-05-17T03:56:50.159Z,26.91
2023-05-17T03:57:50.163Z,26.84
2023-05-17T03:58:50.157Z,26.88
2023-05-17T03:59:50.159Z,26.91
2023-05-17T04:00:50.160Z,26.88
2023-05-17T04:01:50.181Z,26.92
2023-05-17T04:02:50.178Z,26.92
2023-05-17T04:03:50.200Z,26.99
2023-05-17T04:04:50.229Z,26.94
2023-05-17T04:05:50.166Z,26.88
2023-05-17T04:06:50.154Z,26.87
2023-05-17T04:07:50.257Z,26.91
2023-05-17T04:08:50.153Z,26.94
2023-05-17T04:09:50.167Z,26.92
2023-05-17T04:10:50.153Z,26.95
2023-05-17T04:11:50.167Z,26.95
2023-05-17T04:12:50.154Z,26.88
2023-05-17T04:13:50.162Z,26.87
2023-05-17T04:14:50.153Z,26.92
2023-05-17T04:15:50.165Z,26.97
2023-05-17T04:16:50.154Z,26.94
2023-05-17T04:17:50.291Z,26.91
2023-05-17T04:18:50.195Z,26.92
2023-05-17T04:19:50.230Z,26.97
2023-05-17T04:20:50.165Z,26.89
2023-05-17T04:21:50.163Z,26.95
2023-05-17T04:22:50.151Z,26.87
2023-05-17T04:23:50.369Z,26.91
2023-05-17T04:24:50.154Z,26.91
2023-05-17T04:25:50.157Z,26.91
2023-05-17T04:26:50.151Z,26.89
2023-05-17T04:27:50.173Z,26.88
2023-05-17T04:28:50.151Z,26.88
2023-05-17T04:29:50.161Z,26.87
2023-05-17T04:30:50.150Z,26.76
2023-05-17T04:31:50.172Z,26.85
2023-05-17T04:32:50.187Z,26.84
2023-05-17T04:33:50.180Z,26.88
2023-05-17T04:34:50.155Z,26.87
2023-05-17T04:35:50.165Z,26.76
2023-05-17T04:36:50.149Z,26.77
2023-05-17T04:37:50.156Z,26.87
2023-05-17T04:38:50.149Z,26.84
2023-05-17T04:39:50.357Z,26.81
2023-05-17T04:40:50.150Z,26.77
2023-05-17T04:41:50.172Z,26.77
2023-05-17T04:42:50.158Z,26.77
2023-05-17T04:43:50.156Z,26.73
2023-05-17T04:44:50.149Z,26.75
2023-05-17T04:45:50.158Z,26.75
2023-05-17T04:46:50.148Z,26.72
2023-05-17T04:47:50.245Z,26.72
2023-05-17T04:48:50.196Z,26.75
2023-05-17T04:49:50.151Z,26.75
2023-05-17T04:50:50.146Z,26.76
2023-05-17T04:51:50.358Z,26.80
2023-05-17T04:52:50.149Z,26.75
2023-05-17T04:53:50.153Z,26.63
2023-05-17T04:54:50.144Z,26.63
2023-05-17T04:55:50.249Z,26.62
2023-05-17T04:56:50.142Z,26.58
2023-05-17T04:57:50.150Z,26.62
2023-05-17T04:58:52.184Z,26.63
2023-05-17T04:59:50.148Z,26.65
2023-05-17T05:00:50.141Z,26.57
2023-05-17T05:01:50.148Z,26.54
2023-05-17T05:02:50.199Z,26.57
2023-05-17T05:03:50.183Z,26.57
2023-05-17T05:04:50.199Z,26.62
2023-05-17T05:05:50.155Z,26.55
2023-05-17T05:06:50.144Z,26.52
2023-05-17T05:07:50.145Z,26.52
2023-05-17T05:08:50.142Z,26.60
2023-05-17T05:09:50.146Z,26.51
2023-05-17T05:10:50.137Z,26.54
2023-05-17T05:11:50.247Z,26.57
2023-05-17T05:12:50.135Z,26.52
2023-05-17T05:13:50.142Z,26.57
2023-05-17T05:14:50.138Z,26.60
2023-05-17T05:15:50.141Z,26.51
2023-05-17T05:16:50.141Z,26.55
2023-05-17T05:17:50.204Z,26.47
2023-05-17T05:18:50.297Z,26.60
2023-05-17T05:19:50.158Z,26.62
2023-05-17T05:20:50.127Z,26.54
2023-05-17T05:21:50.142Z,26.55
2023-05-17T05:22:50.135Z,26.51
2023-05-17T05:23:50.139Z,26.52
2023-05-17T05:24:50.134Z,26.60
2023-05-17T05:25:50.139Z,26.65
2023-05-17T05:26:50.130Z,26.54
2023-05-17T05:27:50.271Z,26.51
2023-05-17T05:28:50.126Z,26.54
2023-05-17T05:29:50.137Z,26.57
2023-05-17T05:30:50.152Z,26.54
2023-05-17T05:31:50.131Z,26.52
2023-05-17T05:32:50.313Z,26.57
2023-05-17T05:33:50.195Z,26.57
2023-05-17T05:34:50.132Z,26.54
2023-05-17T05:35:50.139Z,26.54
2023-05-17T05:36:50.141Z,26.52
2023-05-17T05:37:50.133Z,26.55
2023-05-17T05:38:50.123Z,26.50
2023-05-17T05:39:50.129Z,26.48
2023-05-17T05:40:50.121Z,26.62
2023-05-17T05:41:50.131Z,26.58
2023-05-17T05:42:50.126Z,26.60
2023-05-17T05:43:50.242Z,26.57
2023-05-17T05:44:50.119Z,26.55
2023-05-17T05:45:50.134Z,26.57
2023-05-17T05:46:50.118Z,26.58
2023-05-17T05:47:50.174Z,26.54
2023-05-17T05:48:50.199Z,26.57
2023-05-17T05:49:50.131Z,26.60
2023-05-17T05:50:50.119Z,26.55
2023-05-17T05:51:50.125Z,26.54
2023-05-17T05:52:50.116Z,26.51
2023-05-17T05:53:50.142Z,26.52
2023-05-17T05:54:50.119Z,26.52
2023-05-17T05:55:50.149Z,26.57
2023-05-17T05:56:50.117Z,26.48
2023-05-17T05:57:50.143Z,26.57
2023-05-17T05:58:50.126Z,26.55
2023-05-17T05:59:50.238Z,26.57
2023-05-17T06:00:50.126Z,26.55
2023-05-17T06:01:50.124Z,26.54
2023-05-17T06:02:50.163Z,26.52
2023-05-17T06:03:50.130Z,26.55
2023-05-17T06:04:50.119Z,26.67
2023-05-17T06:05:50.239Z,26.67
2023-05-17T06:06:50.234Z,26.58
2023-05-17T06:07:50.123Z,26.60
2023-05-17T06:08:50.120Z,26.69
2023-05-17T06:09:50.122Z,26.60
2023-05-17T06:10:50.124Z,26.60
2023-05-17T06:11:50.121Z,26.63
2023-05-17T06:12:50.112Z,26.58
2023-05-17T06:13:50.132Z,26.58
2023-05-17T06:14:50.190Z,26.63
2023-05-17T06:15:50.291Z,26.62
2023-05-17T06:16:50.115Z,26.67
2023-05-17T06:17:50.175Z,26.69
2023-05-17T06:18:51.449Z,26.75
2023-05-17T06:19:50.184Z,26.63
2023-05-17T06:20:50.113Z,26.57
2023-05-17T06:21:50.119Z,26.76
2023-05-17T06:22:50.120Z,26.67
2023-05-17T06:23:50.110Z,26.67
2023-05-17T06:24:50.120Z,26.65
2023-05-17T06:25:50.109Z,26.75
2023-05-17T06:26:50.126Z,26.62
2023-05-17T06:27:50.235Z,26.73
2023-05-17T06:28:50.129Z,26.75
2023-05-17T06:29:50.116Z,26.63
2023-05-17T06:30:50.123Z,26.73
2023-05-17T06:31:50.220Z,26.77
2023-05-17T06:32:50.191Z,26.70
2023-05-17T06:33:50.203Z,26.70
2023-05-17T06:34:50.113Z,26.70
2023-05-17T06:35:56.639Z,26.76
2023-05-17T06:36:50.113Z,26.73
2023-05-17T06:37:50.102Z,26.70
2023-05-17T06:38:50.106Z,26.69
2023-05-17T06:39:55.446Z,26.77
2023-05-17T06:40:50.111Z,26.81
2023-05-17T06:41:50.101Z,26.67
2023-05-17T06:42:50.107Z,26.81
2023-05-17T06:43:50.103Z,26.73
2023-05-17T06:44:50.107Z,26.69
2023-05-17T06:45:50.104Z,26.70
2023-05-17T06:46:50.106Z,26.75
2023-05-17T06:47:50.267Z,26.75
2023-05-17T06:48:51.319Z,26.66
2023-05-17T06:49:50.098Z,26.76
2023-05-17T06:50:50.106Z,26.67
2023-05-17T06:51:50.093Z,26.69
2023-05-17T06:52:50.104Z,26.72
2023-05-17T06:53:50.103Z,26.77
2023-05-17T06:54:50.101Z,26.77
2023-05-17T06:55:50.103Z,26.72
2023-05-17T06:56:50.103Z,26.80
2023-05-17T06:57:50.095Z,26.72
2023-05-17T06:58:50.112Z,26.81
2023-05-17T06:59:50.094Z,26.77
2023-05-17T07:00:50.100Z,26.70
2023-05-17T07:01:50.093Z,26.73
2023-05-17T07:02:50.174Z,26.72
2023-05-17T07:03:50.484Z,26.76
2023-05-17T07:04:50.169Z,26.70
2023-05-17T07:05:50.094Z,26.69
2023-05-17T07:06:50.097Z,26.66
2023-05-17T07:07:50.087Z,26.75
2023-05-17T07:08:50.096Z,26.76
2023-05-17T07:09:50.092Z,26.81
2023-05-17T07:10:50.099Z,26.72
2023-05-17T07:11:50.091Z,26.69
2023-05-17T07:12:50.108Z,26.69
2023-05-17T07:13:52.250Z,26.81
2023-05-17T07:14:50.096Z,26.69
2023-05-17T07:15:50.090Z,26.81
2023-05-17T07:16:50.099Z,26.81
2023-05-17T07:17:50.230Z,26.67
2023-05-17T07:18:50.211Z,26.73
2023-05-17T07:19:50.349Z,26.77
2023-05-17T07:20:50.100Z,26.72
2023-05-17T07:21:50.088Z,26.76
2023-05-17T07:22:50.099Z,26.75
2023-05-17T07:23:50.090Z,26.67
2023-05-17T07:24:50.105Z,26.72
2023-05-17T07:25:50.091Z,26.72
2023-05-17T07:26:52.144Z,26.80
2023-05-17T07:27:50.292Z,26.75
2023-05-17T07:28:50.094Z,26.80
2023-05-17T07:29:50.101Z,26.73
2023-05-17T07:30:50.099Z,26.69
2023-05-17T07:31:50.099Z,26.77
2023-05-17T07:32:50.154Z,26.73
2023-05-17T07:33:50.115Z,26.67
2023-05-17T07:34:50.095Z,26.66
2023-05-17T07:35:50.382Z,26.70
2023-05-17T07:36:50.095Z,26.70
2023-05-17T07:37:50.085Z,26.70
2023-05-17T07:38:50.094Z,26.73
2023-05-17T07:39:50.085Z,26.70
2023-05-17T07:40:50.095Z,26.69
2023-05-17T07:41:50.085Z,26.70
2023-05-17T07:42:50.137Z,26.70
2023-05-17T07:43:50.084Z,26.75
2023-05-17T07:44:50.134Z,26.69
2023-05-17T07:45:50.086Z,26.73
2023-05-17T07:46:50.137Z,26.70
2023-05-17T07:47:50.136Z,26.80
2023-05-17T07:48:50.236Z,26.81
2023-05-17T07:49:50.092Z,26.73
2023-05-17T07:50:50.091Z,26.73
2023-05-17T07:51:50.176Z,26.77
2023-05-17T07:52:50.093Z,26.77
2023-05-17T07:53:50.082Z,26.72
2023-05-17T07:54:50.088Z,26.70
2023-05-17T07:55:50.084Z,26.72
2023-05-17T07:56:50.093Z,26.70
2023-05-17T07:57:50.081Z,26.76
2023-05-17T07:58:50.088Z,26.77
2023-05-17T07:59:50.079Z,26.69
2023-05-17T08:00:50.089Z,26.70
2023-05-17T08:01:50.082Z,26.70
2023-05-17T08:02:50.122Z,26.72
2023-05-17T08:03:50.081Z,26.70
2023-05-17T08:04:50.181Z,26.69
2023-05-17T08:05:50.118Z,26.73
2023-05-17T08:06:50.095Z,26.72
2023-05-17T08:07:50.337Z,26.75
2023-05-17T08:08:50.087Z,26.75
2023-05-17T08:09:50.083Z,26.76
2023-05-17T08:10:50.084Z,26.72
2023-05-17T08:11:50.078Z,26.75
2023-05-17T08:12:50.082Z,26.73
2023-05-17T08:13:50.084Z,26.70
2023-05-17T08:14:50.084Z,26.73
2023-05-17T08:15:51.664Z,26.66
2023-05-17T08:16:50.090Z,26.73
2023-05-17T08:17:50.268Z,26.73
2023-05-17T08:18:50.223Z,26.76
2023-05-17T08:19:50.240Z,26.80
2023-05-17T08:20:50.112Z,26.76
2023-05-17T08:21:50.080Z,26.72
2023-05-17T08:22:50.082Z,26.73
2023-05-17T08:23:50.099Z,26.75
2023-05-17T08:24:50.077Z,26.75
2023-05-17T08:25:50.080Z,26.70
2023-05-17T08:26:50.078Z,26.73
2023-05-17T08:27:50.078Z,26.70
2023-05-17T08:28:50.081Z,26.75
2023-05-17T08:29:50.081Z,26.73
2023-05-17T08:30:50.077Z,26.81
2023-05-17T08:31:50.072Z,26.73
2023-05-17T08:32:50.176Z,26.82
2023-05-17T08:33:50.104Z,26.73
2023-05-17T08:34:50.074Z,26.75
2023-05-17T08:35:50.089Z,26.73
2023-05-17T08:36:50.097Z,26.75
2023-05-17T08:37:50.072Z,26.73
2023-05-17T08:38:50.072Z,26.73
2023-05-17T08:39:50.276Z,26.73
2023-05-17T08:40:50.073Z,26.73
2023-05-17T08:41:50.071Z,26.80
2023-05-17T08:42:50.071Z,26.80
2023-05-17T08:43:50.067Z,26.69
2023-05-17T08:44:50.070Z,26.76
2023-05-17T08:45:50.063Z,26.73
2023-05-17T08:46:50.069Z,26.77
2023-05-17T08:47:50.110Z,26.76
2023-05-17T08:48:50.145Z,26.80
2023-05-17T08:49:50.060Z,26.80
2023-05-17T08:50:50.072Z,26.75
2023-05-17T08:51:50.069Z,26.81
2023-05-17T08:52:50.125Z,26.82
2023-05-17T08:53:50.066Z,26.75
2023-05-17T08:54:50.070Z,26.76
2023-05-17T08:55:50.133Z,26.80
2023-05-17T08:56:50.067Z,26.76
2023-05-17T08:57:50.060Z,26.70
2023-05-17T08:58:56.382Z,26.75
2023-05-17T08:59:50.072Z,26.73
2023-05-17T09:00:50.073Z,26.76
2023-05-17T09:01:50.061Z,26.72
2023-05-17T09:02:50.118Z,26.76
2023-05-17T09:03:50.126Z,26.73
2023-05-17T09:04:50.154Z,26.76
2023-05-17T09:05:50.067Z,26.77
2023-05-17T09:06:50.064Z,26.81
2023-05-17T09:07:50.055Z,26.82
2023-05-17T09:08:50.062Z,26.77
2023-05-17T09:09:50.056Z,26.80
2023-05-17T09:10:50.075Z,26.80
2023-05-17T09:11:50.212Z,26.82
2023-05-17T09:12:50.073Z,26.76
2023-05-17T09:13:50.095Z,26.81
2023-05-17T09:14:50.062Z,26.81
2023-05-17T09:15:50.061Z,26.80
2023-05-17T09:16:50.061Z,26.82
2023-05-17T09:17:50.180Z,26.76
2023-05-17T09:18:50.158Z,26.73
2023-05-17T09:19:50.138Z,26.76
2023-05-17T09:20:50.060Z,26.76
2023-05-17T09:21:50.101Z,26.76
2023-05-17T09:22:50.063Z,26.69
2023-05-17T09:24:01.783Z,26.82
2023-05-17T09:24:50.063Z,26.80
2023-05-17T09:25:50.088Z,26.70
2023-05-17T09:26:50.070Z,26.76
2023-05-17T09:27:50.085Z,26.75
2023-05-17T09:28:50.057Z,26.81
2023-05-17T09:29:50.054Z,26.77
2023-05-17T09:30:50.109Z,26.73
2023-05-17T09:31:50.080Z,26.70
2023-05-17T09:32:50.122Z,26.76
2023-05-17T09:33:50.120Z,26.80
2023-05-17T09:34:50.063Z,26.77
2023-05-17T09:35:50.052Z,26.80
2023-05-17T09:36:50.058Z,26.73
2023-05-17T09:37:50.060Z,26.81
2023-05-17T09:38:50.059Z,26.76
2023-05-17T09:39:50.055Z,26.81
2023-05-17T09:40:50.067Z,26.84
2023-05-17T09:41:50.077Z,26.73
2023-05-17T09:42:50.065Z,26.81
2023-05-17T09:43:50.149Z,26.81
2023-05-17T09:44:50.055Z,26.76
2023-05-17T09:45:50.049Z,26.82
2023-05-17T09:46:50.068Z,26.82
2023-05-17T09:47:50.190Z,26.80
2023-05-17T09:48:50.194Z,26.80
2023-05-17T09:49:50.070Z,26.76
2023-05-17T09:50:50.065Z,26.72
2023-05-17T09:51:50.058Z,26.76
2023-05-17T09:52:50.063Z,26.77
2023-05-17T09:53:50.046Z,26.77
2023-05-17T09:54:50.058Z,26.77
2023-05-17T09:55:50.050Z,26.76
2023-05-17T09:56:50.057Z,26.75
2023-05-17T09:57:50.056Z,26.80
2023-05-17T09:58:50.054Z,26.82
2023-05-17T09:59:50.077Z,26.76
2023-05-17T10:00:50.055Z,26.87
2023-05-17T10:01:50.046Z,26.84
2023-05-17T10:02:50.157Z,26.89
2023-05-17T10:03:50.089Z,26.82
2023-05-17T10:04:50.088Z,26.84
2023-05-17T10:05:50.045Z,26.80
2023-05-17T10:06:52.396Z,26.88
2023-05-17T10:07:50.045Z,26.88
2023-05-17T10:08:50.056Z,26.84
2023-05-17T10:09:50.047Z,26.82
2023-05-17T10:10:50.050Z,26.80
2023-05-17T10:11:50.052Z,26.82
2023-05-17T10:12:50.055Z,26.80
2023-05-17T10:13:50.048Z,26.77
2023-05-17T10:14:50.116Z,26.88
2023-05-17T10:15:50.274Z,26.80
2023-05-17T10:16:50.058Z,26.82
2023-05-17T10:17:50.068Z,26.89
2023-05-17T10:18:50.117Z,26.91
2023-05-17T10:19:50.142Z,26.82
2023-05-17T10:20:50.058Z,26.84
2023-05-17T10:21:50.053Z,26.85
2023-05-17T10:22:50.067Z,26.88
2023-05-17T10:23:50.043Z,26.85
2023-05-17T10:24:50.070Z,26.85
2023-05-17T10:25:50.045Z,26.81
2023-05-17T10:26:50.050Z,26.85
2023-05-17T10:27:50.043Z,26.77
2023-05-17T10:28:50.048Z,26.82
2023-05-17T10:29:50.867Z,26.88
2023-05-17T10:30:50.060Z,26.82
2023-05-17T10:31:50.080Z,26.87
2023-05-17T10:32:50.124Z,26.87
2023-05-17T10:33:50.102Z,26.85
2023-05-17T10:35:01.462Z,26.81
2023-05-17T10:35:50.042Z,26.91
2023-05-17T10:36:50.094Z,26.88
2023-05-17T10:37:50.051Z,26.82
2023-05-17T10:38:50.038Z,26.84
2023-05-17T10:39:50.046Z,26.80
2023-05-17T10:40:50.048Z,26.87
2023-05-17T10:41:50.732Z,26.85
2023-05-17T10:42:50.039Z,26.77
2023-05-17T10:43:50.053Z,26.82
2023-05-17T10:44:50.035Z,26.84
2023-05-17T10:45:50.043Z,26.87
2023-05-17T10:46:50.034Z,26.76
2023-05-17T10:47:50.181Z,26.89
2023-05-17T10:48:50.047Z,26.84
2023-05-17T10:49:50.057Z,26.82
2023-05-17T10:51:00.759Z,26.82
2023-05-17T10:51:50.042Z,26.80
2023-05-17T10:52:50.041Z,26.88
2023-05-17T10:53:50.040Z,26.84
2023-05-17T10:54:50.057Z,26.89
2023-05-17T10:55:50.040Z,26.75
2023-05-17T10:56:50.059Z,26.84
2023-05-17T10:57:51.446Z,26.89
2023-05-17T10:58:50.031Z,26.85
2023-05-17T10:59:50.036Z,26.81
2023-05-17T11:00:50.073Z,26.80
2023-05-17T11:01:50.035Z,26.82
2023-05-17T11:02:50.060Z,26.82
2023-05-17T11:03:50.061Z,26.76
2023-05-17T11:04:50.070Z,26.75
2023-05-17T11:05:50.222Z,26.87
2023-05-17T11:06:50.099Z,26.88
2023-05-17T11:07:50.032Z,26.87
2023-05-17T11:08:50.045Z,26.81
2023-05-17T11:09:50.031Z,26.82
2023-05-17T11:10:50.026Z,26.88
2023-05-17T11:11:50.031Z,26.81
2023-05-17T11:12:50.024Z,26.76
2023-05-17T11:13:50.032Z,26.81
2023-05-17T11:14:50.034Z,26.80
2023-05-17T11:15:50.030Z,26.81
2023-05-17T11:16:50.024Z,26.88
2023-05-17T11:17:50.088Z,26.88
2023-05-17T11:18:50.213Z,26.81
2023-05-17T11:19:50.194Z,26.82
2023-05-17T11:20:50.153Z,26.81
2023-05-17T11:21:50.060Z,26.82
2023-05-17T11:22:50.028Z,26.82
2023-05-17T11:23:50.031Z,26.85
2023-05-17T11:24:50.038Z,26.85
2023-05-17T11:25:50.031Z,26.81
2023-05-17T11:26:50.074Z,26.87
2023-05-17T11:27:50.046Z,26.87
2023-05-17T11:28:50.025Z,26.81
2023-05-17T11:29:50.038Z,26.81
2023-05-17T11:30:50.028Z,26.89
2023-05-17T11:31:50.035Z,26.82
2023-05-17T11:32:50.092Z,26.85
2023-05-17T11:33:50.077Z,26.88
2023-05-17T11:34:50.026Z,26.87
2023-05-17T11:35:51.784Z,26.87
2023-05-17T11:36:50.025Z,26.85
2023-05-17T11:37:50.035Z,26.81
2023-05-17T11:38:55.083Z,26.87
2023-05-17T11:39:50.029Z,26.81
2023-05-17T11:40:50.019Z,26.85
2023-05-17T11:41:50.050Z,26.85
2023-05-17T11:42:50.034Z,26.87
2023-05-17T11:43:50.032Z,26.81
2023-05-17T11:44:50.018Z,26.88
2023-05-17T11:45:52.951Z,26.77
2023-05-17T11:46:50.026Z,26.87
2023-05-17T11:47:50.136Z,26.85
2023-05-17T11:48:50.063Z,26.82
2023-05-17T11:49:50.028Z,26.82
2023-05-17T11:50:50.018Z,26.92
2023-05-17T11:51:50.047Z,26.89
2023-05-17T11:52:50.023Z,26.88
2023-05-17T11:53:50.033Z,26.87
2023-05-17T11:54:50.025Z,26.77
2023-05-17T11:55:50.034Z,26.76
2023-05-17T11:56:50.016Z,26.85
2023-05-17T11:57:50.025Z,26.84
2023-05-17T11:58:50.019Z,26.82
2023-05-17T11:59:50.039Z,26.73
2023-05-17T12:00:50.020Z,26.82
2023-05-17T12:01:50.062Z,26.84
2023-05-17T12:02:50.054Z,26.85
2023-05-17T12:03:50.027Z,26.87
2023-05-17T12:04:50.050Z,26.81
2023-05-17T12:05:50.060Z,26.85
2023-05-17T12:06:50.209Z,26.84
2023-05-17T12:07:50.086Z,26.77
2023-05-17T12:08:50.022Z,26.88
2023-05-17T12:09:50.029Z,26.84
2023-05-17T12:10:50.011Z,26.94
2023-05-17T12:11:50.043Z,26.84
2023-05-17T12:12:50.020Z,26.87
2023-05-17T12:13:50.035Z,26.84
2023-05-17T12:14:50.017Z,26.82
2023-05-17T12:15:50.026Z,26.88
2023-05-17T12:16:50.016Z,26.84
2023-05-17T12:17:51.624Z,26.84
2023-05-17T12:18:50.186Z,26.88
2023-05-17T12:19:50.193Z,26.84
2023-05-17T12:20:50.012Z,26.76
2023-05-17T12:21:50.019Z,26.82
2023-05-17T12:22:50.020Z,26.84
2023-05-17T12:23:51.187Z,26.84
2023-05-17T12:24:50.076Z,26.77
2023-05-17T12:25:50.025Z,26.82
2023-05-17T12:26:50.010Z,26.87
2023-05-17T12:27:50.020Z,26.81
2023-05-17T12:28:50.013Z,26.84
2023-05-17T12:29:50.017Z,26.81
2023-05-17T12:30:50.006Z,26.85
2023-05-17T12:31:50.058Z,26.82
2023-05-17T12:32:50.098Z,26.77
2023-05-17T12:33:50.090Z,26.77
2023-05-17T12:34:50.001Z,26.82
2023-05-17T12:35:50.012Z,26.82
2023-05-17T12:36:50.003Z,26.85
2023-05-17T12:37:50.012Z,26.81
2023-05-17T12:38:50.006Z,26.76
2023-05-17T12:39:50.054Z,26.77
2023-05-17T12:40:50.004Z,26.87
2023-05-17T12:41:50.016Z,26.84
2023-05-17T12:42:50.011Z,26.87
2023-05-17T12:43:50.573Z,26.85
2023-05-17T12:44:50.011Z,26.77
2023-05-17T12:45:50.015Z,26.85
2023-05-17T12:46:50.004Z,26.81
2023-05-17T12:47:50.067Z,26.85
2023-05-17T12:48:50.030Z,26.84
2023-05-17T12:49:50.013Z,26.85
2023-05-17T12:50:50.002Z,26.81
2023-05-17T12:51:50.017Z,26.91
2023-05-17T12:52:49.999Z,26.76